createdAt,value
2022-08-26T00:02:07.328Z,25.90
2022-08-26T00:04:35.654Z,25.90
2022-08-26T00:07:04.708Z,25.90
2022-08-26T00:09:37.303Z,25.90
2022-08-26T00:12:09.429Z,25.90
2022-08-26T00:14:42.311Z,25.90
2022-08-26T00:17:10.618Z,25.90
2022-08-26T00:19:38.961Z,25.90
2022-08-26T00:22:07.416Z,25.90
2022-08-26T00:24:35.589Z,25.90
2022-08-26T00:27:03.846Z,25.90
2022-08-26T00:29:37.451Z,25.90
2022-08-26T00:32:07.923Z,25.90
2022-08-26T00:34:36.301Z,25.90
2022-08-26T00:37:04.741Z,25.90
2022-08-26T00:39:38.023Z,25.90
2022-08-26T00:42:06.421Z,25.90
2022-08-26T00:44:34.609Z,25.90
2022-08-26T00:47:04.194Z,25.90
2022-08-26T00:49:37.318Z,25.90
2022-08-26T00:52:06.717Z,25.90
2022-08-26T00:54:40.345Z,25.80
2022-08-26T00:57:16.323Z,25.90
2022-08-26T00:59:45.276Z,25.90
2022-08-26T01:02:21.129Z,25.80
2022-08-26T01:04:55.743Z,25.90
2022-08-26T01:07:26.196Z,25.80
2022-08-26T01:09:55.669Z,25.80
2022-08-26T01:12:24.142Z,25.80
2022-08-26T01:14:53.271Z,25.80
2022-08-26T01:17:21.557Z,25.80
2022-08-26T01:19:52.685Z,25.80
2022-08-26T01:22:26.740Z,25.80
2022-08-26T01:24:58.706Z,25.80
2022-08-26T01:27:32.417Z,25.80
2022-08-26T01:30:01.305Z,25.80
2022-08-26T01:32:30.103Z,25.80
2022-08-26T01:35:00.123Z,25.80
2022-08-26T01:37:30.688Z,25.80
2022-08-26T01:40:00.481Z,25.80
2022-08-26T01:42:28.695Z,25.80
2022-08-26T01:44:58.947Z,25.80
2022-08-26T01:47:27.628Z,25.80
2022-08-26T01:49:58.617Z,25.80
2022-08-26T01:52:28.424Z,25.80
2022-08-26T01:54:58.657Z,25.80
2022-08-26T01:57:28.415Z,25.80
2022-08-26T01:59:56.679Z,25.80
2022-08-26T02:02:24.906Z,25.80
2022-08-26T02:04:55.559Z,25.80
2022-08-26T02:07:24.370Z,25.80
2022-08-26T02:09:54.897Z,25.80
2022-08-26T02:12:23.108Z,25.80
2022-08-26T02:14:54.238Z,25.80
2022-08-26T02:17:24.580Z,25.80
2022-08-26T02:19:52.900Z,25.80
2022-08-26T02:22:22.158Z,25.80
2022-08-26T02:24:53.819Z,25.80
2022-08-26T02:27:23.978Z,25.80
2022-08-26T02:29:54.890Z,25.80
2022-08-26T02:32:23.059Z,25.80
2022-08-26T02:34:51.477Z,25.80
2022-08-26T02:37:20.148Z,25.80
2022-08-26T02:39:51.300Z,25.70
2022-08-26T02:42:20.358Z,25.70
2022-08-26T02:44:48.562Z,25.80
2022-08-26T02:47:18.204Z,25.80
2022-08-26T02:49:47.145Z,25.80
2022-08-26T02:52:15.974Z,25.70
2022-08-26T02:54:44.193Z,25.70
2022-08-26T02:57:13.656Z,25.70
2022-08-26T02:59:41.817Z,25.70
2022-08-26T03:02:10.689Z,25.70
2022-08-26T03:04:40.742Z,25.70
2022-08-26T03:07:26.459Z,25.70
2022-08-26T03:09:54.631Z,25.70
2022-08-26T03:12:23.275Z,25.70
2022-08-26T03:14:51.435Z,25.70
2022-08-26T03:17:21.150Z,25.70
2022-08-26T03:19:56.972Z,25.70
2022-08-26T03:22:25.634Z,25.70
2022-08-26T03:24:55.441Z,25.70
2022-08-26T03:27:23.678Z,25.70
2022-08-26T03:30:11.838Z,25.70
2022-08-26T03:32:41.551Z,25.70
2022-08-26T03:35:11.439Z,25.70
2022-08-26T03:37:39.753Z,25.70
2022-08-26T03:40:10.017Z,25.70
2022-08-26T03:42:39.013Z,25.70
2022-08-26T03:45:08.244Z,25.70
2022-08-26T03:47:36.385Z,25.70
2022-08-26T03:50:07.288Z,25.70
2022-08-26T03:52:39.660Z,25.70
2022-08-26T03:55:12.520Z,25.70
2022-08-26T03:57:40.687Z,25.70
2022-08-26T04:00:13.806Z,25.70
2022-08-26T04:02:44.025Z,25.70
2022-08-26T04:05:13.826Z,25.70
2022-08-26T04:07:43.741Z,25.70
2022-08-26T04:10:12.607Z,25.70
2022-08-26T04:12:41.299Z,25.70
2022-08-26T04:15:13.075Z,25.60
2022-08-26T04:17:45.340Z,25.70
2022-08-26T04:20:16.171Z,25.60
2022-08-26T04:22:45.958Z,25.60
2022-08-26T04:25:14.310Z,25.70
2022-08-26T04:27:42.532Z,25.60
2022-08-26T04:30:12.007Z,25.60
2022-08-26T04:32:40.201Z,25.60
2022-08-26T04:35:10.391Z,25.60
2022-08-26T04:37:38.718Z,25.60
2022-08-26T04:40:10.086Z,25.60
2022-08-26T04:42:38.380Z,25.60
2022-08-26T04:45:11.566Z,25.60
2022-08-26T04:47:41.054Z,25.60
2022-08-26T04:50:11.033Z,25.60
2022-08-26T04:52:39.338Z,25.60
2022-08-26T04:55:09.933Z,25.60
2022-08-26T04:57:38.149Z,25.60
2022-08-26T05:00:08.511Z,25.60
2022-08-26T05:02:37.459Z,25.60
2022-08-26T05:05:09.308Z,25.60
2022-08-26T05:07:37.640Z,25.60
2022-08-26T05:10:08.770Z,25.60
2022-08-26T05:12:38.561Z,25.60
2022-08-26T05:15:08.167Z,25.60
2022-08-26T05:17:36.780Z,25.60
2022-08-26T05:20:06.890Z,25.60
2022-08-26T05:22:35.060Z,25.60
2022-08-26T05:25:03.343Z,25.60
2022-08-26T05:27:31.554Z,25.60
2022-08-26T05:30:02.577Z,25.60
2022-08-26T05:32:32.043Z,25.60
2022-08-26T05:35:00.346Z,25.60
2022-08-26T05:37:28.865Z,25.60
2022-08-26T05:39:57.690Z,25.60
2022-08-26T05:42:26.346Z,25.60
2022-08-26T05:44:56.056Z,25.60
2022-08-26T05:47:26.295Z,25.70
2022-08-26T05:49:55.454Z,25.70
2022-08-26T05:52:24.558Z,25.70
2022-08-26T05:54:54.343Z,25.70
2022-08-26T05:57:23.083Z,25.70
2022-08-26T05:59:51.660Z,25.80
2022-08-26T06:02:19.992Z,25.80
2022-08-26T06:04:50.414Z,25.80
2022-08-26T06:07:40.842Z,25.80
2022-08-26T06:10:31.049Z,25.80
2022-08-26T06:13:06.202Z,25.90
2022-08-26T06:15:42.195Z,25.90
2022-08-26T06:18:11.555Z,26.00
2022-08-26T06:20:43.781Z,26.00
2022-08-26T06:23:42.962Z,26.00
2022-08-26T06:26:11.936Z,26.00
2022-08-26T06:28:40.131Z,26.00
2022-08-26T06:31:13.855Z,26.10
2022-08-26T06:33:42.484Z,26.10
2022-08-26T06:36:18.680Z,26.10
2022-08-26T06:38:48.330Z,26.10
2022-08-26T06:41:16.961Z,26.10
2022-08-26T06:43:45.726Z,26.20
2022-08-26T06:46:15.833Z,26.20
2022-08-26T06:48:44.173Z,26.20
2022-08-26T06:51:15.187Z,26.20
2022-08-26T06:53:45.604Z,26.30
2022-08-26T06:56:14.176Z,26.30
2022-08-26T06:58:42.641Z,26.30
2022-08-26T07:01:21.350Z,26.30
2022-08-26T07:03:51.377Z,26.30
2022-08-26T07:06:22.007Z,26.30
2022-08-26T07:08:50.331Z,26.30
2022-08-26T07:11:19.089Z,26.30
2022-08-26T07:13:47.431Z,26.30
2022-08-26T07:16:17.790Z,26.30
2022-08-26T07:18:46.164Z,26.30
2022-08-26T07:21:18.222Z,26.40
2022-08-26T07:23:48.798Z,26.40
2022-08-26T07:26:23.240Z,26.40
2022-08-26T07:28:53.967Z,26.40
2022-08-26T07:31:23.061Z,26.50
2022-08-26T07:33:52.075Z,26.50
2022-08-26T07:36:20.754Z,26.50
2022-08-26T07:38:50.354Z,26.60
2022-08-26T07:41:20.031Z,26.60
2022-08-26T07:43:48.340Z,26.60
2022-08-26T07:46:20.696Z,26.60
2022-08-26T07:48:55.610Z,26.60
2022-08-26T07:51:27.056Z,26.60
2022-08-26T07:53:57.575Z,26.60
2022-08-26T07:56:26.084Z,26.70
2022-08-26T07:58:54.582Z,26.70
2022-08-26T08:01:23.821Z,26.70
2022-08-26T08:03:52.422Z,26.80
2022-08-26T08:06:21.100Z,26.80
2022-08-26T08:08:51.652Z,26.80
2022-08-26T08:11:21.744Z,26.80
2022-08-26T08:13:50.017Z,26.90
2022-08-26T08:16:24.864Z,26.90
2022-08-26T08:18:54.572Z,26.80
2022-08-26T08:21:24.421Z,26.90
2022-08-26T08:23:53.489Z,26.90
2022-08-26T08:26:23.137Z,26.90
2022-08-26T08:28:51.564Z,26.90
2022-08-26T08:31:38.600Z,26.90
2022-08-26T08:34:09.616Z,26.90
2022-08-26T08:36:38.315Z,26.90
2022-08-26T08:39:07.278Z,26.90
2022-08-26T08:41:46.882Z,26.90
2022-08-26T08:44:18.548Z,26.90
2022-08-26T08:46:47.866Z,27.00
2022-08-26T08:49:16.911Z,27.00
2022-08-26T08:51:49.671Z,27.00
2022-08-26T08:54:18.366Z,27.00
2022-08-26T08:56:54.133Z,27.00
2022-08-26T08:59:24.699Z,27.00
2022-08-26T09:01:59.941Z,27.00
2022-08-26T09:04:45.843Z,27.00
2022-08-26T09:07:17.875Z,27.00
2022-08-26T09:09:48.511Z,27.00
2022-08-26T09:12:29.362Z,27.00
2022-08-26T09:15:03.123Z,27.00
2022-08-26T09:17:38.731Z,27.00
2022-08-26T09:20:12.117Z,27.00
2022-08-26T09:22:44.251Z,27.00
2022-08-26T09:25:19.229Z,27.00
2022-08-26T09:27:50.980Z,27.00
2022-08-26T09:30:24.972Z,27.00
2022-08-26T09:33:00.815Z,27.00
2022-08-26T09:35:32.265Z,27.00
2022-08-26T09:38:00.895Z,27.00
2022-08-26T09:40:34.542Z,27.00
2022-08-26T09:43:15.988Z,27.00
2022-08-26T09:45:58.514Z,27.00
2022-08-26T09:48:30.206Z,27.00
2022-08-26T09:51:00.069Z,27.00
2022-08-26T09:53:31.446Z,27.00
2022-08-26T09:56:16.160Z,27.00
2022-08-26T09:58:47.807Z,27.00
2022-08-26T10:01:17.686Z,27.00
2022-08-26T10:03:47.742Z,27.00
2022-08-26T10:06:26.742Z,27.00
2022-08-26T10:08:57.065Z,27.10
2022-08-26T10:11:30.558Z,27.10
2022-08-26T10:14:03.145Z,27.10
2022-08-26T10:16:33.625Z,27.10
2022-08-26T10:19:07.944Z,27.10
2022-08-26T10:21:38.168Z,27.10
2022-08-26T10:24:07.261Z,27.10
2022-08-26T10:26:42.945Z,27.10
2022-08-26T10:29:16.872Z,27.10
2022-08-26T10:31:48.073Z,27.10
2022-08-26T10:34:21.227Z,27.10
2022-08-26T10:37:15.894Z,27.10
2022-08-26T10:39:46.074Z,27.20
2022-08-26T10:42:18.446Z,27.20
2022-08-26T10:44:48.293Z,27.20
2022-08-26T10:47:18.478Z,27.20
2022-08-26T10:49:47.767Z,27.20
2022-08-26T10:52:18.542Z,27.20
2022-08-26T10:54:48.466Z,27.20
2022-08-26T10:57:18.617Z,27.30
2022-08-26T10:59:52.404Z,27.30
2022-08-26T11:02:25.174Z,27.30
2022-08-26T11:04:56.218Z,27.30
2022-08-26T11:07:46.197Z,27.30
2022-08-26T11:11:05.766Z,27.30
2022-08-26T11:14:07.869Z,27.30
2022-08-26T11:16:42.803Z,27.30
2022-08-26T11:19:12.989Z,27.30
2022-08-26T11:21:50.727Z,27.30
2022-08-26T11:24:45.172Z,27.30
2022-08-26T11:27:44.685Z,27.30
2022-08-26T11:30:38.352Z,27.30
2022-08-26T11:33:09.683Z,27.30
2022-08-26T11:35:50.902Z,27.30
2022-08-26T11:38:26.747Z,27.30
2022-08-26T11:41:03.836Z,27.30
2022-08-26T11:43:32.454Z,27.30
2022-08-26T11:46:02.558Z,27.30
2022-08-26T11:48:33.486Z,27.30
2022-08-26T11:51:03.592Z,27.30
2022-08-26T11:53:34.259Z,27.20
2022-08-26T11:56:03.702Z,27.30
2022-08-26T11:58:33.124Z,27.30
2022-08-26T12:01:04.358Z,27.30
2022-08-26T12:03:41.395Z,27.30
2022-08-26T12:06:14.421Z,27.30
2022-08-26T12:08:44.045Z,27.30
2022-08-26T12:11:13.736Z,27.30
2022-08-26T12:13:42.740Z,27.30
2022-08-26T12:16:13.874Z,27.30
2022-08-26T12:18:44.906Z,27.30
2022-08-26T12:21:16.143Z,27.30
2022-08-26T12:23:45.702Z,27.30
2022-08-26T12:26:21.644Z,27.30
2022-08-26T12:28:51.680Z,27.30
2022-08-26T12:31:25.932Z,27.30
2022-08-26T12:33:56.153Z,27.30
2022-08-26T12:36:31.420Z,27.30
2022-08-26T12:39:08.056Z,27.30
2022-08-26T12:41:54.535Z,27.30
2022-08-26T12:44:36.624Z,27.30
2022-08-26T12:47:08.313Z,27.30
2022-08-26T12:49:38.229Z,27.30
2022-08-26T12:52:06.770Z,27.30
2022-08-26T12:54:56.560Z,27.30
2022-08-26T12:57:27.413Z,27.30
2022-08-26T12:59:55.738Z,27.30
2022-08-26T13:02:41.829Z,27.30
2022-08-26T13:05:21.184Z,27.30
2022-08-26T13:08:11.274Z,27.30
2022-08-26T13:10:40.638Z,27.30
2022-08-26T13:13:10.513Z,27.40
2022-08-26T13:15:38.727Z,27.40
2022-08-26T13:18:06.940Z,27.40
2022-08-26T13:20:37.202Z,27.40
2022-08-26T13:23:05.575Z,27.50
2022-08-26T13:25:34.084Z,27.50
2022-08-26T13:28:02.277Z,27.50
2022-08-26T13:30:30.519Z,27.50
2022-08-26T13:32:59.768Z,27.60
2022-08-26T13:35:30.478Z,27.50
2022-08-26T13:38:02.824Z,27.50
2022-08-26T13:40:34.463Z,27.50
2022-08-26T13:43:02.994Z,27.60
2022-08-26T13:45:31.728Z,27.60
2022-08-26T13:48:00.474Z,27.50
2022-08-26T13:50:28.674Z,27.50
2022-08-26T13:52:57.363Z,27.50
2022-08-26T13:55:27.846Z,27.50
2022-08-26T13:57:56.307Z,27.50
2022-08-26T14:00:24.577Z,27.50
2022-08-26T14:02:52.790Z,27.50
2022-08-26T14:05:21.881Z,27.50
2022-08-26T14:07:50.099Z,27.50
2022-08-26T14:10:19.276Z,27.50
2022-08-26T14:12:51.393Z,27.50
2022-08-26T14:15:19.817Z,27.50
2022-08-26T14:17:48.368Z,27.50
2022-08-26T14:20:18.249Z,27.50
2022-08-26T14:23:03.471Z,27.50
2022-08-26T14:25:34.687Z,27.50
2022-08-26T14:28:05.783Z,27.50
2022-08-26T14:30:34.199Z,27.50
2022-08-26T14:33:02.811Z,27.50
2022-08-26T14:35:31.669Z,27.40
2022-08-26T14:37:59.873Z,27.40
2022-08-26T14:40:29.710Z,27.40
2022-08-26T14:42:58.793Z,27.40
2022-08-26T14:45:29.149Z,27.40
2022-08-26T14:47:57.608Z,27.40
2022-08-26T14:50:27.866Z,27.40
2022-08-26T14:53:13.541Z,27.40
2022-08-26T14:55:42.268Z,27.40
2022-08-26T14:58:10.711Z,27.40
2022-08-26T15:00:43.298Z,27.30
2022-08-26T15:03:11.666Z,27.30
2022-08-26T15:05:48.046Z,27.30
2022-08-26T15:08:17.178Z,27.30
2022-08-26T15:10:46.489Z,27.30
2022-08-26T15:13:15.854Z,27.30
2022-08-26T15:15:45.552Z,27.30
2022-08-26T15:18:13.854Z,27.20
2022-08-26T15:20:42.541Z,27.20
2022-08-26T15:23:11.188Z,27.20
2022-08-26T15:25:39.824Z,27.20
2022-08-26T15:28:08.141Z,27.20
2022-08-26T15:30:36.921Z,27.20
2022-08-26T15:33:07.090Z,27.20
2022-08-26T15:35:43.715Z,27.20
2022-08-26T15:38:12.630Z,27.20
2022-08-26T15:40:40.886Z,27.20
2022-08-26T15:43:25.680Z,27.20
2022-08-26T15:45:56.554Z,27.20
2022-08-26T15:48:26.453Z,27.10
2022-08-26T15:50:56.066Z,27.20
2022-08-26T15:53:24.291Z,27.10
2022-08-26T15:55:54.110Z,27.10
2022-08-26T15:58:22.544Z,27.10
2022-08-26T16:00:52.784Z,27.10
2022-08-26T16:03:20.998Z,27.10
2022-08-26T16:05:50.797Z,27.10
2022-08-26T16:08:19.039Z,27.10
2022-08-26T16:10:50.668Z,27.10
2022-08-26T16:13:19.617Z,27.10
2022-08-26T16:15:48.453Z,27.10
2022-08-26T16:18:16.749Z,27.10
2022-08-26T16:21:05.003Z,27.10
2022-08-26T16:23:39.001Z,27.10
2022-08-26T16:26:10.439Z,27.10
2022-08-26T16:28:39.095Z,27.10
2022-08-26T16:31:07.622Z,27.10
2022-08-26T16:33:35.906Z,27.10
2022-08-26T16:36:06.186Z,27.10
2022-08-26T16:38:34.503Z,27.10
2022-08-26T16:41:02.817Z,27.10
2022-08-26T16:43:31.149Z,27.10
2022-08-26T16:45:59.482Z,27.10
2022-08-26T16:48:28.045Z,27.10
2022-08-26T16:50:56.262Z,27.10
2022-08-26T16:53:26.012Z,27.10
2022-08-26T16:55:56.832Z,27.10
2022-08-26T16:58:25.050Z,27.10
2022-08-26T17:00:53.734Z,27.10
2022-08-26T17:03:21.959Z,27.00
2022-08-26T17:05:50.311Z,27.00
2022-08-26T17:08:28.666Z,27.00
2022-08-26T17:10:59.893Z,27.00
2022-08-26T17:13:34.857Z,27.00
2022-08-26T17:16:05.064Z,27.00
2022-08-26T17:18:33.650Z,27.00
2022-08-26T17:21:02.363Z,27.00
2022-08-26T17:23:30.659Z,27.00
2022-08-26T17:26:00.233Z,27.00
2022-08-26T17:28:28.452Z,27.00
2022-08-26T17:30:57.343Z,26.90
2022-08-26T17:33:25.784Z,26.90
2022-08-26T17:35:54.206Z,26.90
2022-08-26T17:38:24.148Z,26.90
2022-08-26T17:40:53.005Z,26.90
2022-08-26T17:43:23.049Z,26.90
2022-08-26T17:45:53.096Z,26.90
2022-08-26T17:48:23.211Z,26.90
2022-08-26T17:50:53.134Z,26.90
2022-08-26T17:53:23.753Z,26.90
2022-08-26T17:55:54.112Z,26.90
2022-08-26T17:58:23.957Z,26.90
2022-08-26T18:00:53.132Z,26.90
2022-08-26T18:03:21.426Z,26.80
2022-08-26T18:05:49.802Z,26.80
2022-08-26T18:08:18.101Z,26.80
2022-08-26T18:10:46.383Z,26.80
2022-08-26T18:13:15.254Z,26.80
2022-08-26T18:15:45.664Z,26.80
2022-08-26T18:18:14.377Z,26.80
2022-08-26T18:20:43.274Z,26.80
2022-08-26T18:23:11.839Z,26.80
2022-08-26T18:25:41.429Z,26.80
2022-08-26T18:28:10.073Z,26.80
2022-08-26T18:30:38.658Z,26.80
2022-08-26T18:33:08.533Z,26.80
2022-08-26T18:35:39.594Z,26.80
2022-08-26T18:38:10.569Z,26.70
2022-08-26T18:40:43.843Z,26.70
2022-08-26T18:43:12.222Z,26.70
2022-08-26T18:45:42.261Z,26.70
2022-08-26T18:48:12.117Z,26.70
2022-08-26T18:50:41.820Z,26.70
2022-08-26T18:53:12.151Z,26.70
2022-08-26T18:55:40.520Z,26.70
2022-08-26T18:58:09.009Z,26.70
2022-08-26T19:00:39.374Z,26.70
2022-08-26T19:03:15.592Z,26.70
2022-08-26T19:05:49.155Z,26.70
2022-08-26T19:08:17.469Z,26.70
2022-08-26T19:10:45.834Z,26.70
2022-08-26T19:13:14.169Z,26.70
2022-08-26T19:15:44.956Z,26.70
2022-08-26T19:18:14.011Z,26.70
2022-08-26T19:20:46.458Z,26.70
2022-08-26T19:23:33.117Z,26.70
2022-08-26T19:26:04.243Z,26.70
2022-08-26T19:28:32.858Z,26.70
2022-08-26T19:31:02.735Z,26.70
2022-08-26T19:33:31.113Z,26.70
2022-08-26T19:35:59.478Z,26.70
2022-08-26T19:38:31.143Z,26.60
2022-08-26T19:40:59.922Z,26.60
2022-08-26T19:43:28.340Z,26.60
2022-08-26T19:46:00.669Z,26.60
2022-08-26T19:48:29.764Z,26.60
2022-08-26T19:50:58.230Z,26.60
2022-08-26T19:53:26.601Z,26.60
2022-08-26T19:55:56.464Z,26.60
2022-08-26T19:58:24.856Z,26.60
2022-08-26T20:00:53.453Z,26.60
2022-08-26T20:03:23.894Z,26.60
2022-08-26T20:05:52.579Z,26.60
2022-08-26T20:08:22.246Z,26.60
2022-08-26T20:10:51.249Z,26.60
2022-08-26T20:13:22.019Z,26.60
2022-08-26T20:15:50.704Z,26.60
2022-08-26T20:18:36.609Z,26.60
2022-08-26T20:21:22.270Z,26.60
2022-08-26T20:23:51.568Z,26.60
2022-08-26T20:26:19.839Z,26.60
2022-08-26T20:28:51.054Z,26.60
2022-08-26T20:31:19.642Z,26.60
2022-08-26T20:33:48.229Z,26.60
2022-08-26T20:36:16.867Z,26.60
2022-08-26T20:38:46.133Z,26.60
2022-08-26T20:41:14.526Z,26.60
2022-08-26T20:43:43.709Z,26.60
2022-08-26T20:46:18.086Z,26.60
2022-08-26T20:48:47.774Z,26.60
2022-08-26T20:51:16.086Z,26.60
2022-08-26T20:53:44.492Z,26.60
2022-08-26T20:56:16.679Z,26.50
2022-08-26T20:58:44.897Z,26.50
2022-08-26T21:01:19.458Z,26.50
2022-08-26T21:03:48.021Z,26.50
2022-08-26T21:06:16.347Z,26.50
2022-08-26T21:08:44.675Z,26.50
2022-08-26T21:11:13.398Z,26.50
2022-08-26T21:14:03.438Z,26.50
2022-08-26T21:16:31.678Z,26.50
2022-08-26T21:19:00.443Z,26.50
2022-08-26T21:21:28.909Z,26.50
2022-08-26T21:23:57.260Z,26.50
2022-08-26T21:26:25.573Z,26.50
2022-08-26T21:28:53.837Z,26.50
2022-08-26T21:31:23.921Z,26.50
2022-08-26T21:33:53.547Z,26.50
2022-08-26T21:36:21.807Z,26.50
2022-08-26T21:38:50.017Z,26.50
2022-08-26T21:41:23.130Z,26.40
2022-08-26T21:43:53.580Z,26.50
2022-08-26T21:46:22.838Z,26.50
2022-08-26T21:48:54.962Z,26.50
2022-08-26T21:51:24.251Z,26.50
2022-08-26T21:53:52.995Z,26.50
2022-08-26T21:56:21.768Z,26.50
2022-08-26T21:58:50.450Z,26.50
2022-08-26T22:01:22.755Z,26.40
2022-08-26T22:03:52.389Z,26.50
2022-08-26T22:06:23.318Z,26.40
2022-08-26T22:08:51.718Z,26.40
2022-08-26T22:11:20.152Z,26.50
2022-08-26T22:13:48.650Z,26.40
2022-08-26T22:16:17.252Z,26.40
2022-08-26T22:18:45.907Z,26.40
2022-08-26T22:21:15.384Z,26.40
2022-08-26T22:23:45.018Z,26.40
2022-08-26T22:26:14.352Z,26.40
2022-08-26T22:28:42.532Z,26.40
2022-08-26T22:31:12.551Z,26.40
2022-08-26T22:33:40.833Z,26.40
2022-08-26T22:36:09.225Z,26.40
2022-08-26T22:38:37.521Z,26.40
2022-08-26T22:41:08.502Z,26.40
2022-08-26T22:43:38.394Z,26.40
2022-08-26T22:46:09.494Z,26.40
2022-08-26T22:48:42.281Z,26.40
2022-08-26T22:51:10.553Z,26.40
2022-08-26T22:53:41.530Z,26.40
2022-08-26T22:56:12.282Z,26.40
2022-08-26T22:58:40.634Z,26.40
2022-08-26T23:01:08.929Z,26.40
2022-08-26T23:03:37.330Z,26.40
2022-08-26T23:06:06.660Z,26.40
2022-08-26T23:08:34.977Z,26.40
2022-08-26T23:11:03.298Z,26.40
2022-08-26T23:13:32.888Z,26.40
2022-08-26T23:16:01.850Z,26.40
2022-08-26T23:18:30.101Z,26.40
2022-08-26T23:20:58.331Z,26.40
2022-08-26T23:23:27.658Z,26.40
2022-08-26T23:25:55.988Z,26.30
2022-08-26T23:28:24.376Z,26.40
2022-08-26T23:30:54.566Z,26.40
2022-08-26T23:33:22.854Z,26.40
2022-08-26T23:35:50.852Z,26.30
2022-08-26T23:38:19.136Z,26.40
2022-08-26T23:40:50.895Z,26.40
2022-08-26T23:43:19.147Z,26.40
2022-08-26T23:45:47.402Z,26.40
2022-08-26T23:48:17.155Z,26.30
2022-08-26T23:51:05.071Z,26.30
2022-08-26T23:53:34.163Z,26.30
2022-08-26T23:56:02.339Z,26.30
2022-08-26T23:58:30.587Z,26.30
